Time;durP1;ratioP1;P1;durP2;ratioP2;P2;SDS_P1;SDS_P2;PMS_P1;PMS_P2;Temp;Humidity;BMP_temperature;BMP_pressure;BME280_temperature;BME280_humidity;BME280_pressure;Samples;Min_cycle;Max_cycle;Signal;HPM_P1;HPM_P2
2021/07/21 00:00:57;;;;;;;;;16.40;14.40;;;;;22.43;55.47;98927.47;6308558;27;96602;-67
2021/07/21 00:04:00;;;;;;;;;14.50;12.50;;;;;22.41;55.30;98934.41;6298070;27;97382;-66
2021/07/21 00:07:24;;;;;;;;;15.00;14.00;;;;;22.27;55.33;98933.50;6310725;27;96650;-66
2021/07/21 00:10:30;;;;;;;;;16.00;14.00;;;;;22.35;55.82;98935.59;6315916;27;97322;-66
2021/07/21 00:13:36;;;;;;;;;15.20;13.80;;;;;22.26;55.63;98935.44;6316914;27;96922;-65
2021/07/21 00:16:43;;;;;;;;;14.00;13.00;;;;;22.32;55.67;98945.25;6291382;27;97036;-66
2021/07/21 00:23:08;;;;;;;;;15.00;14.00;;;;;22.23;55.57;98929.72;6309888;27;96617;-66
2021/07/21 00:26:12;;;;;;;;;18.00;16.00;;;;;22.27;55.62;98934.34;6314806;27;96418;-65
2021/07/21 00:29:16;;;;;;;;;17.20;15.60;;;;;22.30;55.56;98930.97;6314421;27;96742;-65
2021/07/21 00:32:19;;;;;;;;;15.00;14.00;;;;;22.26;55.93;98938.19;6292178;27;99442;-65
2021/07/21 00:35:23;;;;;;;;;17.00;15.00;;;;;22.23;55.79;98943.47;6310304;27;97402;-66
2021/07/21 00:38:26;;;;;;;;;17.80;14.80;;;;;22.20;55.60;98944.84;6294740;27;97271;-65
2021/07/21 00:41:32;;;;;;;;;16.60;16.00;;;;;22.14;55.37;98946.03;6299190;27;96795;-65
2021/07/21 00:44:35;;;;;;;;;16.50;16.00;;;;;22.17;55.62;98948.22;6292964;27;99590;-67
2021/07/21 00:47:40;;;;;;;;;14.00;13.00;;;;;22.09;55.48;98943.34;6293118;27;97726;-66
2021/07/21 00:50:43;;;;;;;;;14.00;13.00;;;;;22.17;54.63;98950.13;6314026;27;96836;-66
2021/07/21 00:53:48;;;;;;;;;13.40;12.40;;;;;22.12;54.63;98948.28;6306654;27;97422;-66
2021/07/21 00:56:56;;;;;;;;;15.00;14.60;;;;;22.07;54.64;98951.09;6305798;27;97459;-67
2021/07/21 01:00:00;;;;;;;;;16.40;14.40;;;;;22.13;54.87;98949.09;6312693;27;97491;-67
2021/07/21 01:03:07;;;;;;;;;13.50;13.00;;;;;22.19;54.89;98950.63;6308067;27;96693;-66
2021/07/21 01:06:14;;;;;;;;;13.00;12.00;;;;;22.17;54.98;98956.44;6301303;27;97453;-67
2021/07/21 01:09:19;;;;;;;;;15.50;14.50;;;;;22.15;55.09;98946.84;6296852;27;97750;-65
2021/07/21 01:12:36;;;;;;;;;13.00;12.00;;;;;22.09;54.89;98953.56;6299614;27;97425;-67
2021/07/21 01:15:46;;;;;;;;;15.00;14.00;;;;;22.07;55.05;98951.09;6308838;27;97186;-67
2021/07/21 01:19:03;;;;;;;;;13.00;12.60;;;;;22.08;55.10;98949.16;6276613;27;98618;-65
2021/07/21 01:22:14;;;;;;;;;16.50;15.75;;;;;22.07;54.73;98942.84;6271756;27;97288;-65
2021/07/21 01:25:29;;;;;;;;;17.00;14.80;;;;;22.13;54.17;98947.16;6256760;27;97685;-66
2021/07/21 01:28:48;;;;;;;;;15.67;14.00;;;;;22.19;53.74;98943.22;6293611;27;97198;-66
2021/07/21 01:31:57;;;;;;;;;15.20;13.80;;;;;22.20;54.11;98950.34;6307561;27;96424;-66
2021/07/21 01:35:06;;;;;;;;;13.00;12.00;;;;;22.16;53.60;98932.84;6281736;27;98927;-66
2021/07/21 01:38:13;;;;;;;;;17.00;14.00;;;;;22.21;54.15;98942.94;6286710;27;96542;-66
2021/07/21 01:41:25;;;;;;;;;12.00;12.00;;;;;22.27;53.82;98941.75;6304905;27;97497;-67
2021/07/21 01:44:37;;;;;;;;;15.00;15.00;;;;;22.28;53.86;98938.72;6307932;27;96621;-66
2021/07/21 01:47:45;;;;;;;;;14.00;13.60;;;;;22.21;53.47;98934.69;6314314;27;97405;-65
2021/07/21 01:50:55;;;;;;;;;13.00;11.40;;;;;22.22;53.92;98939.06;6286916;27;97877;-67
2021/07/21 01:54:00;;;;;;;;;13.40;12.60;;;;;22.19;53.90;98939.66;6281600;27;97157;-64
2021/07/21 01:57:04;;;;;;;;;13.80;13.00;;;;;22.18;53.94;98940.78;6273445;27;97118;-65
2021/07/21 02:00:12;;;;;;;;;17.00;14.00;;;;;22.14;53.48;98943.28;6283572;27;98455;-65
2021/07/21 02:03:27;;;;;;;;;16.00;14.60;;;;;22.17;53.51;98941.91;6288729;27;96997;-65
2021/07/21 02:06:33;;;;;;;;;14.40;13.00;;;;;22.19;53.28;98945.16;6314083;27;96540;-65
2021/07/21 02:09:39;;;;;;;;;13.25;12.25;;;;;22.18;53.29;98958.09;6293505;27;96574;-66
2021/07/21 02:12:51;;;;;;;;;15.00;14.25;;;;;22.18;53.79;98947.09;6278703;27;96825;-65
2021/07/21 02:16:01;;;;;;;;;15.50;14.50;;;;;22.11;53.26;98952.13;6308630;27;96533;-67
2021/07/21 02:19:06;;;;;;;;;13.50;12.00;;;;;22.17;53.78;98959.19;6290536;27;97462;-65
2021/07/21 02:22:33;;;;;;;;;15.40;13.00;;;;;22.19;53.64;98951.47;6291606;27;98544;-65
2021/07/21 02:26:03;;;;;;;;;14.00;12.50;;;;;22.23;53.18;98957.19;6309872;27;98050;-67
2021/07/21 02:29:09;;;;;;;;;13.00;12.00;;;;;22.25;53.21;98960.44;6302097;27;97586;-65
2021/07/21 02:32:37;;;;;;;;;11.80;10.80;;;;;22.15;52.96;98958.66;6281125;27;97920;-65
2021/07/21 02:35:41;;;;;;;;;12.00;11.40;;;;;22.20;52.67;98958.59;6292181;27;98315;-66
2021/07/21 02:38:46;;;;;;;;;13.60;12.00;;;;;22.16;52.70;98960.28;6294987;27;97114;-65
2021/07/21 02:41:51;;;;;;;;;10.50;9.25;;;;;22.12;53.10;98959.25;6312206;27;97433;-67
2021/07/21 02:44:55;;;;;;;;;15.00;14.00;;;;;22.10;53.23;98957.91;6287635;27;97464;-66
2021/07/21 02:48:00;;;;;;;;;13.00;13.00;;;;;22.08;53.24;98957.41;6313357;27;97447;-65
2021/07/21 02:51:10;;;;;;;;;13.00;12.00;;;;;22.06;53.46;98965.09;6274775;27;97734;-66
2021/07/21 02:54:35;;;;;;;;;14.40;12.40;;;;;21.97;53.22;98962.19;6306475;27;96996;-65
2021/07/21 02:57:51;;;;;;;;;12.00;12.00;;;;;22.06;52.97;98967.84;6310235;27;97154;-66
2021/07/21 03:00:59;;;;;;;;;12.00;11.60;;;;;22.08;52.82;98968.38;6290624;27;96658;-64
2021/07/21 03:04:09;;;;;;;;;15.00;13.40;;;;;22.02;53.16;98976.69;6280133;27;99068;-64
2021/07/21 03:07:16;;;;;;;;;10.20;10.20;;;;;22.02;53.21;98973.94;6301691;27;97476;-66
2021/07/21 03:10:20;;;;;;;;;12.80;11.40;;;;;21.92;53.10;98985.00;6297427;27;96816;-65
2021/07/21 03:13:46;;;;;;;;;13.00;12.00;;;;;21.94;53.06;98979.28;6294265;27;96482;-67
2021/07/21 03:16:52;;;;;;;;;10.00;10.00;;;;;21.92;53.03;98985.00;6311553;27;96791;-66
2021/07/21 03:20:03;;;;;;;;;13.00;12.00;;;;;21.89;53.03;98987.53;6297300;27;97543;-66
2021/07/21 03:23:09;;;;;;;;;12.00;12.00;;;;;21.91;53.29;98985.28;6301234;27;96517;-64
2021/07/21 03:26:16;;;;;;;;;11.00;10.00;;;;;21.89;52.76;98982.03;6293124;27;96694;-64
2021/07/21 03:29:22;;;;;;;;;8.80;8.20;;;;;21.82;53.23;98993.38;6312990;27;96979;-65
2021/07/21 03:32:31;;;;;;;;;11.00;11.00;;;;;21.91;52.98;98983.38;6283487;27;96770;-64
2021/07/21 03:35:38;;;;;;;;;13.20;11.80;;;;;21.92;52.49;98987.75;6306854;27;97900;-64
2021/07/21 03:38:43;;;;;;;;;10.40;9.00;;;;;21.90;52.78;98997.38;6294276;27;97146;-65
2021/07/21 03:41:58;;;;;;;;;12.00;10.00;;;;;21.85;52.43;98997.44;6278593;27;96516;-66
2021/07/21 03:45:10;;;;;;;;;12.00;10.25;;;;;21.82;52.39;98998.84;6293020;27;96920;-67
2021/07/21 03:48:17;;;;;;;;;9.00;9.00;;;;;21.79;53.00;98995.88;6283937;27;96959;-66
2021/07/21 03:51:42;;;;;;;;;10.80;10.00;;;;;21.81;52.70;99007.38;6259226;27;97062;-67
2021/07/21 03:55:16;;;;;;;;;11.60;9.60;;;;;21.84;52.89;99009.56;6287356;27;97153;-66
2021/07/21 03:58:46;;;;;;;;;10.00;9.80;;;;;21.80;52.67;99003.81;6289357;27;97506;-65
2021/07/21 04:01:57;;;;;;;;;13.00;12.00;;;;;21.69;52.80;99017.97;6285616;27;96523;-65
2021/07/21 04:05:02;;;;;;;;;12.40;10.40;;;;;21.72;52.67;99017.34;6290800;27;97004;-68
2021/07/21 04:08:09;;;;;;;;;11.00;11.00;;;;;21.71;52.63;99021.22;6274894;27;96573;-66
2021/07/21 04:11:13;;;;;;;;;12.20;11.20;;;;;21.72;53.01;99026.41;6302451;27;96505;-67
2021/07/21 04:14:19;;;;;;;;;11.00;11.00;;;;;21.78;52.67;99029.94;6316099;27;96591;-66
2021/07/21 04:17:45;;;;;;;;;13.00;12.00;;;;;21.80;52.20;99028.50;6301704;27;96703;-67
2021/07/21 04:21:00;;;;;;;;;11.00;11.00;;;;;21.81;52.33;99032.06;6310672;27;97004;-67
2021/07/21 04:24:09;;;;;;;;;10.00;10.00;;;;;21.83;51.89;99035.34;6314499;27;97464;-66
2021/07/21 04:27:13;;;;;;;;;11.20;10.00;;;;;21.80;51.60;99033.19;6302866;27;96907;-67
2021/07/21 04:30:23;;;;;;;;;13.00;11.00;;;;;21.81;51.76;99037.56;6286677;27;97646;-67
2021/07/21 04:33:29;;;;;;;;;11.00;10.50;;;;;21.65;51.98;99030.63;6295972;27;97518;-67
2021/07/21 04:36:35;;;;;;;;;13.00;12.00;;;;;21.69;51.62;99031.69;6303015;27;96780;-65
2021/07/21 04:39:42;;;;;;;;;10.00;9.00;;;;;21.69;51.80;99040.72;6299596;27;96489;-66
2021/07/21 04:43:06;;;;;;;;;11.00;9.40;;;;;21.70;51.85;99036.06;6316153;27;96408;-67
2021/07/21 04:46:12;;;;;;;;;12.00;11.00;;;;;21.71;51.21;99054.97;6296532;27;97583;-67
2021/07/21 04:49:17;;;;;;;;;10.00;9.20;;;;;21.79;51.82;99048.03;6304596;27;97363;-65
2021/07/21 04:52:25;;;;;;;;;13.00;11.00;;;;;21.79;51.37;99050.78;6297362;27;97440;-66
2021/07/21 04:55:30;;;;;;;;;12.00;11.00;;;;;21.83;50.86;99062.81;6297141;27;97397;-66
2021/07/21 04:58:34;;;;;;;;;10.60;10.00;;;;;21.84;50.63;99062.53;6292555;27;96682;-65
2021/07/21 05:01:44;;;;;;;;;11.50;11.00;;;;;21.93;50.83;99063.53;6295847;27;97517;-66
2021/07/21 05:04:48;;;;;;;;;10.75;10.75;;;;;21.91;50.82;99057.50;6299038;27;96998;-66
2021/07/21 05:08:08;;;;;;;;;12.00;11.00;;;;;21.92;50.55;99070.09;6274873;27;96994;-65
2021/07/21 05:11:27;;;;;;;;;11.00;9.00;;;;;21.82;50.84;99074.88;6306570;27;96867;-65
2021/07/21 05:14:33;;;;;;;;;11.00;10.00;;;;;21.86;50.65;99075.94;6295088;27;96978;-66
2021/07/21 05:17:57;;;;;;;;;11.33;10.00;;;;;21.97;50.37;99075.56;6288029;27;97210;-67
2021/07/21 05:21:06;;;;;;;;;14.00;11.00;;;;;21.98;50.39;99068.97;6306171;27;97413;-66
2021/07/21 05:24:10;;;;;;;;;9.40;9.40;;;;;22.01;50.00;99076.63;6267220;27;98407;-65
2021/07/21 05:27:15;;;;;;;;;12.00;10.00;;;;;22.08;50.18;99079.03;6301176;27;97233;-66
2021/07/21 05:30:19;;;;;;;;;12.00;11.00;;;;;22.08;49.78;99078.22;6311956;27;97788;-66
2021/07/21 05:33:36;;;;;;;;;10.00;10.00;;;;;22.15;49.76;99082.22;6267110;27;97026;-66
2021/07/21 05:36:40;;;;;;;;;12.00;11.60;;;;;22.17;49.63;99090.19;6301953;27;97425;-65
2021/07/21 05:39:52;;;;;;;;;10.00;10.00;;;;;22.07;49.96;99079.31;6278690;27;97811;-67
2021/07/21 05:42:59;;;;;;;;;10.00;10.00;;;;;22.18;49.53;99078.91;6265948;27;96846;-65
2021/07/21 05:46:08;;;;;;;;;11.00;9.00;;;;;22.20;49.42;99093.16;6307556;27;98467;-66
2021/07/21 05:49:16;;;;;;;;;13.00;12.40;;;;;22.18;49.60;99095.38;6282944;27;97154;-67
2021/07/21 05:52:46;;;;;;;;;13.00;12.00;;;;;22.19;49.04;99097.00;6297111;27;96755;-66
2021/07/21 05:55:50;;;;;;;;;12.00;12.00;;;;;22.18;49.11;99095.38;6266137;27;97158;-66
2021/07/21 05:58:58;;;;;;;;;11.60;11.60;;;;;22.20;49.59;99100.56;6286217;27;97411;-67
2021/07/21 06:02:04;;;;;;;;;10.00;10.00;;;;;22.12;49.06;99102.03;6285529;27;96653;-65
2021/07/21 06:05:11;;;;;;;;;10.00;10.00;;;;;22.15;49.37;99103.38;6286626;27;96652;-66
2021/07/21 06:08:20;;;;;;;;;11.40;10.40;;;;;22.22;49.27;99110.16;6281911;27;97630;-65
2021/07/21 06:11:32;;;;;;;;;10.20;10.00;;;;;22.31;49.23;99107.59;6287611;27;97718;-65
2021/07/21 06:14:37;;;;;;;;;11.00;9.60;;;;;22.24;49.14;99107.94;6271484;27;98813;-67
2021/07/21 06:17:40;;;;;;;;;11.00;10.00;;;;;22.27;49.03;99112.84;6287169;27;96649;-64
2021/07/21 06:20:44;;;;;;;;;12.50;11.00;;;;;22.35;48.83;99109.44;6273001;27;96671;-65
2021/07/21 06:23:48;;;;;;;;;12.33;11.00;;;;;22.33;48.72;99105.38;6285147;27;97072;-66
2021/07/21 06:26:51;;;;;;;;;12.20;11.20;;;;;22.51;48.72;99112.84;6299195;27;97476;-66
2021/07/21 06:30:10;;;;;;;;;12.00;11.00;;;;;22.54;48.61;99114.16;6266949;27;97711;-65
2021/07/21 06:33:17;;;;;;;;;12.00;12.00;;;;;22.61;48.25;99120.13;6266096;27;96697;-66
2021/07/21 06:36:23;;;;;;;;;13.00;12.00;;;;;22.70;48.12;99115.59;6290536;27;96725;-65
2021/07/21 06:39:27;;;;;;;;;14.00;12.00;;;;;22.78;47.47;99123.22;6288597;27;97408;-65
2021/07/21 06:42:33;;;;;;;;;14.40;12.00;;;;;22.78;47.44;99137.78;6283327;27;96691;-65
2021/07/21 06:45:38;;;;;;;;;13.00;11.00;;;;;22.84;47.50;99130.28;6263145;27;99232;-66
2021/07/21 06:48:52;;;;;;;;;11.33;10.33;;;;;22.99;48.04;99135.56;6296056;27;97066;-67
2021/07/21 06:52:00;;;;;;;;;10.00;9.75;;;;;22.94;47.41;99119.16;6288710;27;96541;-66
2021/07/21 06:55:13;;;;;;;;;11.60;10.60;;;;;23.20;47.08;99136.09;6285736;27;97223;-67
2021/07/21 06:58:21;;;;;;;;;11.20;9.80;;;;;23.27;47.06;99142.03;6281150;27;96584;-65
2021/07/21 07:01:28;;;;;;;;;12.00;11.00;;;;;23.33;46.73;99146.34;6262591;27;96626;-67
2021/07/21 07:04:51;;;;;;;;;14.00;12.00;;;;;23.43;46.56;99140.69;6247782;27;96556;-66
2021/07/21 07:08:12;;;;;;;;;11.00;10.00;;;;;23.51;46.27;99140.03;6247846;27;96593;-66
2021/07/21 07:11:34;;;;;;;;;14.20;12.00;;;;;23.60;45.69;99146.47;6262768;27;97469;-64
2021/07/21 07:14:38;;;;;;;;;12.75;10.00;;;;;23.72;45.83;99143.25;6259584;27;97099;-64
2021/07/21 07:17:42;;;;;;;;;12.00;11.40;;;;;23.82;45.29;99145.03;6271471;27;96580;-65
2021/07/21 07:20:47;;;;;;;;;13.00;12.00;;;;;23.94;45.42;99139.88;6256601;27;97423;-64
2021/07/21 07:23:52;;;;;;;;;10.80;10.20;;;;;24.00;45.42;99147.72;6248879;27;96678;-68
2021/07/21 07:26:55;;;;;;;;;12.00;11.60;;;;;23.98;44.59;99146.41;6245159;27;97312;-68
2021/07/21 07:29:59;;;;;;;;;11.00;10.00;;;;;24.04;44.79;99145.97;6250425;27;97407;-65
2021/07/21 07:33:05;;;;;;;;;12.00;11.00;;;;;23.85;44.66;99147.19;6265116;27;97383;-66
2021/07/21 07:36:08;;;;;;;;;13.50;11.00;;;;;23.86;44.72;99146.03;6250154;27;96637;-64
2021/07/21 07:39:13;;;;;;;;;12.00;11.40;;;;;23.90;44.21;99147.06;6252035;27;98719;-65
2021/07/21 07:42:16;;;;;;;;;12.40;12.40;;;;;23.97;44.56;99147.50;6252060;27;97186;-66
2021/07/21 07:45:20;;;;;;;;;12.80;12.00;;;;;23.97;44.67;99164.03;6249079;27;97879;-65
2021/07/21 07:48:25;;;;;;;;;11.40;10.40;;;;;24.02;44.71;99156.50;6253548;27;96648;-64
2021/07/21 07:51:29;;;;;;;;;10.33;9.33;;;;;24.17;44.72;99155.44;6252899;27;97403;-65
2021/07/21 07:54:32;;;;;;;;;12.60;11.40;;;;;24.36;44.75;99161.69;6251618;27;98325;-68
2021/07/21 07:57:36;;;;;;;;;12.75;10.00;;;;;24.50;44.12;99167.19;6255867;27;98044;-65
2021/07/21 08:00:40;;;;;;;;;12.00;11.75;;;;;24.71;43.29;99165.66;6281417;27;98484;-65
2021/07/21 08:03:45;;;;;;;;;10.00;9.00;;;;;24.95;43.92;99163.50;6306134;27;98015;-66
2021/07/21 08:06:48;;;;;;;;;10.40;10.00;;;;;25.12;43.62;99160.09;6317185;27;96408;-64
2021/07/21 08:09:52;;;;;;;;;11.00;10.00;;;;;25.35;43.40;99161.78;6314878;27;97468;-66
2021/07/21 08:12:55;;;;;;;;;10.25;10.00;;;;;25.75;43.15;99160.00;6312704;27;96785;-66
2021/07/21 08:15:59;;;;;;;;;12.00;11.00;;;;;25.93;42.92;99158.16;6314603;27;96421;-64
2021/07/21 08:19:04;;;;;;;;;11.00;10.75;;;;;26.17;42.86;99163.31;6298091;27;97170;-66
2021/07/21 08:22:07;;;;;;;;;10.00;10.00;;;;;26.28;41.98;99164.72;6310350;27;97038;-65
2021/07/21 08:25:15;;;;;;;;;12.40;11.40;;;;;26.54;41.94;99162.03;6301586;27;97425;-67
2021/07/21 08:28:25;;;;;;;;;11.00;10.00;;;;;26.69;42.36;99159.66;6310071;27;97425;-67
2021/07/21 08:31:29;;;;;;;;;11.50;10.75;;;;;26.88;41.49;99164.94;6311098;27;96860;-66
2021/07/21 08:34:34;;;;;;;;;11.00;9.80;;;;;27.22;41.02;99164.19;6315625;27;97681;-64
2021/07/21 08:37:37;;;;;;;;;10.00;9.00;;;;;27.31;40.63;99161.44;6315899;27;96488;-64
2021/07/21 08:40:42;;;;;;;;;13.40;11.00;;;;;27.43;40.63;99148.56;6297450;27;97431;-66
2021/07/21 08:44:03;;;;;;;;;12.00;10.00;;;;;27.73;39.99;99162.56;6292718;27;96529;-66
2021/07/21 08:47:08;;;;;;;;;9.40;8.60;;;;;27.88;40.30;99148.22;6314874;27;96689;-65
2021/07/21 08:50:14;;;;;;;;;11.60;11.00;;;;;28.30;39.35;99163.13;6314912;27;97468;-66
2021/07/21 08:53:19;;;;;;;;;11.00;10.00;;;;;28.44;38.56;99170.06;6315298;27;96480;-66
2021/07/21 08:56:22;;;;;;;;;12.60;12.00;;;;;28.57;39.01;99162.69;6315504;27;96993;-65
2021/07/21 08:59:27;;;;;;;;;10.00;9.00;;;;;28.87;39.01;99163.53;6296424;27;96575;-64
2021/07/21 09:02:33;;;;;;;;;10.60;10.00;;;;;29.14;38.51;99157.47;6314264;27;97472;-64
2021/07/21 09:05:38;;;;;;;;;10.40;9.00;;;;;29.09;37.98;99160.44;6314910;27;97422;-64
2021/07/21 09:08:42;;;;;;;;;9.60;9.00;;;;;29.07;38.00;99159.19;6303044;27;98421;-64
2021/07/21 09:11:46;;;;;;;;;10.00;9.25;;;;;29.03;37.95;99155.44;6302081;27;97356;-63
2021/07/21 09:14:49;;;;;;;;;10.25;10.00;;;;;28.92;37.65;99152.25;6284277;27;99574;-65
2021/07/21 09:18:01;;;;;;;;;10.50;10.00;;;;;28.89;37.86;99135.44;6285379;27;96808;-65
2021/07/21 09:21:08;;;;;;;;;11.00;10.00;;;;;29.13;38.14;99155.84;6303408;27;97418;-65
2021/07/21 09:24:20;;;;;;;;;11.40;10.40;;;;;29.10;37.41;99156.53;6301950;27;96541;-65
2021/07/21 09:27:27;;;;;;;;;12.20;10.20;;;;;29.03;37.85;99164.56;6300756;27;96443;-66
2021/07/21 09:30:36;;;;;;;;;12.00;10.00;;;;;28.76;38.46;99160.34;6301846;27;97425;-65
2021/07/21 09:33:39;;;;;;;;;11.00;10.00;;;;;28.72;38.70;99164.94;6303586;27;97477;-63
2021/07/21 09:36:44;;;;;;;;;11.00;11.00;;;;;28.52;37.86;99160.09;6303360;27;96498;-65
2021/07/21 09:39:50;;;;;;;;;10.00;9.00;;;;;28.52;38.41;99153.72;6292990;27;97363;-64
2021/07/21 09:42:53;;;;;;;;;12.00;10.00;;;;;28.58;38.94;99158.78;6284983;27;97234;-66
2021/07/21 09:46:04;;;;;;;;;9.60;9.00;;;;;28.62;38.55;99162.50;6302522;27;96754;-64
2021/07/21 09:49:19;;;;;;;;;10.50;10.00;;;;;28.77;38.58;99158.38;6300113;27;99550;-66
2021/07/21 09:52:26;;;;;;;;;9.60;9.00;;;;;28.95;37.85;99157.13;6308157;27;97443;-65
2021/07/21 09:55:29;;;;;;;;;8.60;7.00;;;;;29.03;38.24;99159.00;6303952;27;97474;-64
2021/07/21 09:58:35;;;;;;;;;12.00;11.00;;;;;29.01;37.86;99161.31;6300717;27;97449;-64
2021/07/21 10:01:39;;;;;;;;;12.33;11.33;;;;;28.97;37.28;99165.94;6280358;27;97171;-63
2021/07/21 10:04:45;;;;;;;;;11.00;11.00;;;;;28.95;37.36;99162.66;6280599;27;99775;-64
2021/07/21 10:07:50;;;;;;;;;9.00;9.00;;;;;28.88;36.91;99161.59;6303273;27;97423;-64
2021/07/21 10:10:54;;;;;;;;;11.00;10.00;;;;;28.88;36.95;99159.63;6299170;27;97387;-64
2021/07/21 10:14:12;;;;;;;;;10.50;10.00;;;;;28.66;36.59;99130.16;6304373;27;96664;-64
2021/07/21 10:17:18;;;;;;;;;11.00;10.00;;;;;28.79;36.58;99148.56;6303113;27;97118;-64
2021/07/21 10:20:22;;;;;;;;;10.00;10.00;;;;;28.75;37.04;99157.88;6272000;27;96720;-65
2021/07/21 10:23:27;;;;;;;;;10.60;9.60;;;;;28.69;36.91;99160.00;6308441;27;97417;-65
2021/07/21 10:26:30;;;;;;;;;9.00;9.00;;;;;28.60;38.50;99159.22;6304228;27;96526;-65
2021/07/21 10:29:34;;;;;;;;;10.50;9.75;;;;;28.46;38.11;99161.44;6288909;27;96627;-65
2021/07/21 10:32:38;;;;;;;;;8.00;8.00;;;;;28.30;37.45;99161.16;6297768;27;97198;-64
2021/07/21 10:35:44;;;;;;;;;9.00;8.00;;;;;28.21;37.31;99163.16;6310079;27;97407;-65
2021/07/21 10:38:48;;;;;;;;;8.75;8.75;;;;;28.11;37.21;99171.81;6304934;27;97019;-66
2021/07/21 10:41:52;;;;;;;;;10.75;10.00;;;;;28.12;37.97;99162.38;6298642;27;97461;-65
2021/07/21 10:44:57;;;;;;;;;9.00;8.00;;;;;28.11;38.50;99160.72;6296238;27;97020;-65
2021/07/21 10:48:08;;;;;;;;;10.00;10.00;;;;;28.14;38.78;99164.81;6291711;27;97422;-66
2021/07/21 10:51:31;;;;;;;;;8.00;7.80;;;;;28.16;37.60;99163.31;6286407;27;96574;-64
2021/07/21 10:54:47;;;;;;;;;8.00;8.00;;;;;28.16;37.01;99166.09;6273972;27;97871;-65
2021/07/21 11:01:24;;;;;;;;;8.40;8.00;;;;;28.12;36.93;99165.13;6297531;27;96625;-64
2021/07/21 11:04:42;;;;;;;;;8.25;8.00;;;;;28.14;36.43;99168.41;6306659;27;96637;-66
2021/07/21 11:07:51;;;;;;;;;9.25;8.25;;;;;28.13;36.57;99157.63;6300977;27;97119;-66
2021/07/21 11:10:58;;;;;;;;;8.00;8.00;;;;;28.19;36.89;99162.69;6279822;27;96679;-67
2021/07/21 11:14:01;;;;;;;;;8.40;8.40;;;;;28.31;36.73;99164.75;6281300;27;97250;-66
2021/07/21 11:17:14;;;;;;;;;10.00;9.00;;;;;28.42;36.49;99163.25;6282469;27;98988;-65
2021/07/21 11:20:52;;;;;;;;;10.00;10.00;;;;;28.44;36.76;99158.19;6286324;27;98451;-65
2021/07/21 11:24:02;;;;;;;;;9.00;8.40;;;;;28.44;36.54;99160.97;6296210;27;97468;-64
2021/07/21 11:27:06;;;;;;;;;10.00;10.00;;;;;28.64;36.03;99156.59;6300901;27;97442;-65
2021/07/21 11:30:33;;;;;;;;;9.40;9.00;;;;;28.95;37.00;99157.13;6295478;27;97455;-64
2021/07/21 11:33:43;;;;;;;;;8.00;8.00;;;;;29.51;34.86;99150.19;6298258;27;97496;-64
2021/07/21 11:36:49;;;;;;;;;8.75;8.00;;;;;29.72;34.85;99158.47;6295282;27;96741;-65
2021/07/21 11:39:54;;;;;;;;;7.60;7.40;;;;;29.89;33.92;99155.59;6290243;27;97475;-65
2021/07/21 11:43:36;;;;;;;;;7.00;6.00;;;;;30.42;33.41;99157.44;6279355;27;96787;-66
2021/07/21 11:46:40;;;;;;;;;8.00;7.00;;;;;30.91;31.94;99152.69;6296214;27;96726;-64
2021/07/21 11:49:49;;;;;;;;;7.50;7.50;;;;;30.90;30.64;99137.16;6296983;27;96766;-64
2021/07/21 11:52:53;;;;;;;;;8.75;8.00;;;;;30.88;30.70;99147.03;6287032;27;97503;-63
2021/07/21 11:56:08;;;;;;;;;10.00;8.00;;;;;31.28;31.10;99144.28;6285240;27;99681;-64
2021/07/21 11:59:13;;;;;;;;;10.00;9.40;;;;;31.53;30.12;99139.44;6299142;27;97387;-65
2021/07/21 12:02:18;;;;;;;;;8.20;8.00;;;;;31.47;30.19;99150.06;6300531;27;96704;-64
2021/07/21 12:05:22;;;;;;;;;9.00;8.60;;;;;31.32;30.44;99146.03;6285782;27;97484;-65
2021/07/21 12:08:25;;;;;;;;;10.67;10.67;;;;;31.15;30.14;99146.31;6265524;27;98633;-65
2021/07/21 12:11:29;;;;;;;;;8.00;8.00;;;;;30.96;30.18;99149.69;6298555;27;97353;-65
2021/07/21 12:14:35;;;;;;;;;9.60;8.40;;;;;30.76;30.97;99158.97;6298526;27;96461;-65
2021/07/21 12:17:39;;;;;;;;;9.00;9.00;;;;;30.48;31.08;99142.16;6302709;27;98105;-64
2021/07/21 12:20:45;;;;;;;;;9.00;8.00;;;;;30.31;31.40;99155.44;6300559;27;97399;-64
2021/07/21 12:23:57;;;;;;;;;9.00;9.00;;;;;30.02;32.26;99156.41;6304099;27;96510;-63
2021/07/21 12:27:01;;;;;;;;;10.00;9.00;;;;;29.85;32.22;99159.34;6284844;27;98600;-64
2021/07/21 12:30:09;;;;;;;;;10.00;10.00;;;;;29.75;32.96;99157.00;6305310;27;97457;-65
2021/07/21 12:33:12;;;;;;;;;8.00;8.00;;;;;29.77;33.19;99161.06;6302831;27;96902;-66
2021/07/21 12:36:16;;;;;;;;;9.00;9.00;;;;;29.78;33.15;99161.88;6289429;27;96715;-65
2021/07/21 12:39:25;;;;;;;;;8.00;8.00;;;;;29.75;33.13;99152.25;6306507;27;97011;-65
2021/07/21 12:42:30;;;;;;;;;10.00;7.50;;;;;29.75;32.89;99163.38;6303020;27;96948;-65
2021/07/21 12:45:35;;;;;;;;;8.00;7.00;;;;;29.73;33.05;99156.53;6302280;27;96606;-64
2021/07/21 12:48:39;;;;;;;;;9.60;8.60;;;;;29.70;33.31;99158.84;6289533;27;97492;-64
2021/07/21 12:51:45;;;;;;;;;9.00;9.00;;;;;29.59;32.48;99159.59;6301970;27;97803;-65
2021/07/21 12:54:54;;;;;;;;;8.00;8.00;;;;;29.57;31.93;99150.78;6301018;27;97405;-65
2021/07/21 12:57:59;;;;;;;;;9.00;9.00;;;;;29.63;32.37;99152.19;6302866;27;97079;-64
2021/07/21 13:01:04;;;;;;;;;12.00;9.00;;;;;29.76;32.45;99145.56;6304810;27;96749;-64
2021/07/21 13:04:08;;;;;;;;;9.00;8.00;;;;;29.93;31.98;99150.94;6288977;27;97447;-66
2021/07/21 13:07:11;;;;;;;;;8.25;7.00;;;;;30.14;29.57;99148.13;6287985;27;99780;-64
2021/07/21 13:10:20;;;;;;;;;8.00;8.00;;;;;30.26;29.51;99139.78;6287820;27;98388;-65
2021/07/21 13:13:25;;;;;;;;;8.40;6.60;;;;;30.46;29.65;99138.09;6296486;27;96643;-65
2021/07/21 13:16:32;;;;;;;;;9.00;8.00;;;;;30.58;29.84;99146.47;6313223;27;96732;-65
2021/07/21 13:19:35;;;;;;;;;7.00;7.00;;;;;30.72;29.71;99148.88;6287055;27;97748;-65
2021/07/21 13:22:39;;;;;;;;;8.00;8.00;;;;;31.11;30.42;99134.25;6314292;27;96756;-65
2021/07/21 13:25:42;;;;;;;;;9.00;8.50;;;;;31.27;29.25;99124.00;6314697;27;97398;-65
2021/07/21 13:28:47;;;;;;;;;8.00;8.00;;;;;31.67;29.61;99125.94;6314845;27;97429;-63
2021/07/21 13:31:52;;;;;;;;;8.80;8.20;;;;;31.82;28.64;99128.78;6314636;27;97375;-64
2021/07/21 13:35:09;;;;;;;;;8.50;8.00;;;;;31.96;28.95;99133.13;6314175;27;96417;-64
2021/07/21 13:38:14;;;;;;;;;8.00;7.00;;;;;32.10;28.27;99133.50;6309812;27;96872;-65
2021/07/21 13:41:27;;;;;;;;;8.00;8.00;;;;;32.28;28.82;99132.03;6304544;27;97023;-64
2021/07/21 13:44:32;;;;;;;;;10.00;8.50;;;;;32.47;28.19;99129.31;6297857;27;96678;-63
2021/07/21 13:47:39;;;;;;;;;8.00;7.00;;;;;32.52;27.91;99125.44;6311321;27;97368;-64
2021/07/21 13:50:43;;;;;;;;;8.00;7.00;;;;;32.16;27.01;99126.50;6291991;27;97430;-62
2021/07/21 13:53:46;;;;;;;;;9.00;9.00;;;;;32.10;27.23;99125.16;6314368;27;96608;-62
2021/07/21 13:56:51;;;;;;;;;9.60;8.00;;;;;31.97;27.67;99127.19;6313534;27;96613;-63
2021/07/21 13:59:55;;;;;;;;;8.00;8.00;;;;;31.71;26.42;99124.91;6282457;27;98384;-62
2021/07/21 14:03:01;;;;;;;;;10.00;9.60;;;;;31.55;27.16;99125.97;6310567;27;96515;-64
2021/07/21 14:06:05;;;;;;;;;8.60;8.00;;;;;31.55;28.57;99126.78;6309819;27;96584;-62
2021/07/21 14:09:10;;;;;;;;;9.00;8.00;;;;;31.42;28.54;99134.38;6311045;27;97483;-63
2021/07/21 14:12:14;;;;;;;;;7.00;7.00;;;;;31.24;28.77;99124.69;6310382;27;97384;-62
2021/07/21 14:15:17;;;;;;;;;10.00;10.00;;;;;31.14;29.13;99125.19;6296779;27;96934;-62
2021/07/21 14:18:22;;;;;;;;;9.00;7.60;;;;;31.06;28.68;99125.31;6310759;27;96537;-62
2021/07/21 14:21:26;;;;;;;;;9.00;8.00;;;;;30.85;29.06;99120.69;6311899;27;96699;-63
2021/07/21 14:24:29;;;;;;;;;9.00;8.00;;;;;30.75;29.88;99126.72;6296022;27;97529;-63
2021/07/21 14:27:32;;;;;;;;;8.25;8.00;;;;;30.69;30.30;99132.91;6313674;27;96611;-63
2021/07/21 14:30:36;;;;;;;;;9.00;8.00;;;;;30.59;31.43;99125.81;6314189;27;96720;-63
2021/07/21 14:33:40;;;;;;;;;9.00;8.00;;;;;30.53;31.38;99118.84;6313623;27;97376;-63
2021/07/21 14:36:47;;;;;;;;;8.00;8.00;;;;;30.59;31.41;99120.25;6314443;27;97432;-63